sensor_id;sensor_type;location;lat;lon;timestamp;pressure;altitude;pressure_sealevel;temperature;humidity
71565;BME280;59397;50.952;14.502;2023-09-08T00:09:14;978.79;;;10.58;100.00
71565;BME280;59397;50.952;14.502;2023-09-08T00:28:47;978.73;;;10.61;100.00
71565;BME280;59397;50.952;14.502;2023-09-08T00:48:23;978.76;;;9.94;100.00
71565;BME280;59397;50.952;14.502;2023-09-08T01:07:56;978.69;;;9.77;100.00
71565;BME280;59397;50.952;14.502;2023-09-08T01:27:28;978.70;;;9.93;100.00
71565;BME280;59397;50.952;14.502;2023-09-08T01:47:03;978.64;;;9.55;100.00
71565;BME280;59397;50.952;14.502;2023-09-08T02:06:34;978.47;;;8.95;100.00
71565;BME280;59397;50.952;14.502;2023-09-08T02:26:12;978.39;;;8.99;100.00
71565;BME280;59397;50.952;14.502;2023-09-08T02:45:48;978.44;;;9.26;100.00
71565;BME280;59397;50.952;14.502;2023-09-08T03:05:20;978.17;;;9.34;100.00
71565;BME280;59397;50.952;14.502;2023-09-08T03:24:52;978.11;;;9.16;100.00
71565;BME280;59397;50.952;14.502;2023-09-08T03:44:26;977.99;;;8.92;100.00
71565;BME280;59397;50.952;14.502;2023-09-08T04:04:03;977.97;;;8.42;100.00
71565;BME280;59397;50.952;14.502;2023-09-08T04:23:35;977.97;;;8.35;100.00
71565;BME280;59397;50.952;14.502;2023-09-08T04:43:10;978.04;;;8.46;100.00
71565;BME280;59397;50.952;14.502;2023-09-08T05:02:44;978.17;;;8.42;100.00
71565;BME280;59397;50.952;14.502;2023-09-08T05:22:21;978.09;;;9.41;100.00
71565;BME280;59397;50.952;14.502;2023-09-08T05:42:00;978.27;;;10.18;100.00
71565;BME280;59397;50.952;14.502;2023-09-08T06:01:37;978.29;;;11.08;100.00
71565;BME280;59397;50.952;14.502;2023-09-08T06:21:16;978.07;;;12.66;100.00
71565;BME280;59397;50.952;14.502;2023-09-08T06:40:52;977.99;;;14.08;100.00
71565;BME280;59397;50.952;14.502;2023-09-08T07:00:34;977.97;;;15.58;100.00
71565;BME280;59397;50.952;14.502;2023-09-08T07:20:15;978.03;;;17.01;100.00
71565;BME280;59397;50.952;14.502;2023-09-08T07:39:53;978.09;;;18.83;95.84
71565;BME280;59397;50.952;14.502;2023-09-08T07:59:30;978.00;;;19.97;87.65
71565;BME280;59397;50.952;14.502;2023-09-08T08:19:07;977.96;;;20.56;82.88
71565;BME280;59397;50.952;14.502;2023-09-08T08:38:44;977.91;;;21.18;68.15
71565;BME280;59397;50.952;14.502;2023-09-08T08:58:26;977.80;;;21.75;65.73
71565;BME280;59397;50.952;14.502;2023-09-08T09:18:02;977.90;;;22.46;61.40
71565;BME280;59397;50.952;14.502;2023-09-08T09:37:36;977.87;;;23.00;61.04
71565;BME280;59397;50.952;14.502;2023-09-08T09:57:14;977.65;;;23.39;56.97
71565;BME280;59397;50.952;14.502;2023-09-08T10:16:49;977.41;;;23.51;56.90
71565;BME280;59397;50.952;14.502;2023-09-08T10:36:24;977.43;;;23.80;58.62
71565;BME280;59397;50.952;14.502;2023-09-08T10:55:57;977.21;;;24.14;55.58
71565;BME280;59397;50.952;14.502;2023-09-08T11:15:32;977.21;;;24.36;51.36
71565;BME280;59397;50.952;14.502;2023-09-08T11:35:10;977.19;;;24.54;51.31
71565;BME280;59397;50.952;14.502;2023-09-08T11:54:42;977.02;;;24.70;47.77
71565;BME280;59397;50.952;14.502;2023-09-08T12:14:21;976.92;;;24.98;47.04
71565;BME280;59397;50.952;14.502;2023-09-08T12:33:56;976.81;;;24.78;48.32
71565;BME280;59397;50.952;14.502;2023-09-08T12:53:34;976.73;;;25.21;43.64
71565;BME280;59397;50.952;14.502;2023-09-08T13:13:09;976.55;;;25.27;48.04
71565;BME280;59397;50.952;14.502;2023-09-08T13:32:45;976.40;;;25.52;48.67
71565;BME280;59397;50.952;14.502;2023-09-08T13:52:18;976.39;;;25.17;47.44
71565;BME280;59397;50.952;14.502;2023-09-08T14:11:48;976.27;;;24.95;46.96
71565;BME280;59397;50.952;14.502;2023-09-08T14:31:23;976.28;;;25.01;47.54
71565;BME280;59397;50.952;14.502;2023-09-08T14:50:56;976.11;;;24.93;47.99
71565;BME280;59397;50.952;14.502;2023-09-08T15:10:30;976.11;;;24.76;50.79
71565;BME280;59397;50.952;14.502;2023-09-08T15:30:08;975.99;;;24.63;49.59
71565;BME280;59397;50.952;14.502;2023-09-08T15:49:40;975.98;;;24.41;50.89
71565;BME280;59397;50.952;14.502;2023-09-08T16:09:10;975.75;;;24.10;53.21
71565;BME280;59397;50.952;14.502;2023-09-08T16:28:46;975.79;;;23.08;57.95
71565;BME280;59397;50.952;14.502;2023-09-08T16:48:17;975.68;;;22.09;63.70
71565;BME280;59397;50.952;14.502;2023-09-08T17:07:43;975.72;;;20.44;77.37
71565;BME280;59397;50.952;14.502;2023-09-08T17:27:15;975.93;;;18.75;88.60
71565;BME280;59397;50.952;14.502;2023-09-08T17:46:41;976.12;;;17.52;96.47
71565;BME280;59397;50.952;14.502;2023-09-08T18:06:14;976.18;;;16.14;100.00
71565;BME280;59397;50.952;14.502;2023-09-08T18:25:46;976.19;;;16.10;100.00
71565;BME280;59397;50.952;14.502;2023-09-08T18:45:15;976.21;;;15.11;100.00
71565;BME280;59397;50.952;14.502;2023-09-08T19:04:46;976.14;;;14.37;100.00
71565;BME280;59397;50.952;14.502;2023-09-08T19:24:19;976.09;;;13.94;100.00
71565;BME280;59397;50.952;14.502;2023-09-08T19:43:52;976.19;;;13.66;100.00
71565;BME280;59397;50.952;14.502;2023-09-08T20:03:24;976.11;;;12.89;100.00
71565;BME280;59397;50.952;14.502;2023-09-08T20:23:01;976.18;;;12.58;100.00
71565;BME280;59397;50.952;14.502;2023-09-08T20:42:34;976.19;;;12.07;100.00
71565;BME280;59397;50.952;14.502;2023-09-08T21:02:07;976.18;;;12.16;100.00
71565;BME280;59397;50.952;14.502;2023-09-08T21:21:41;976.17;;;11.98;100.00
71565;BME280;59397;50.952;14.502;2023-09-08T21:41:12;976.11;;;11.67;100.00
71565;BME280;59397;50.952;14.502;2023-09-08T22:00:50;976.12;;;11.73;100.00
71565;BME280;59397;50.952;14.502;2023-09-08T22:20:22;976.21;;;11.11;100.00
71565;BME280;59397;50.952;14.502;2023-09-08T22:39:56;976.12;;;11.20;100.00
71565;BME280;59397;50.952;14.502;2023-09-08T22:59:30;976.07;;;10.61;100.00
71565;BME280;59397;50.952;14.502;2023-09-08T23:18:58;975.94;;;10.06;100.00
71565;BME280;59397;50.952;14.502;2023-09-08T23:38:37;975.68;;;10.25;100.00
71565;BME280;59397;50.952;14.502;2023-09-08T23:58:12;975.67;;;10.53;100.00
